sensor_id;sensor_type;location;lat;lon;timestamp;pressure;altitude;pressure_sealevel;temperature;humidity
63568;BME280;49715;42.386;20.434;2022-11-25T00:01:47;97385.94;;;6.78;74.06
63568;BME280;49715;42.386;20.434;2022-11-25T00:04:14;97396.53;;;6.76;73.90
63568;BME280;49715;42.386;20.434;2022-11-25T00:06:41;97394.06;;;6.75;73.82
63568;BME280;49715;42.386;20.434;2022-11-25T00:09:10;97394.06;;;6.75;73.96
63568;BME280;49715;42.386;20.434;2022-11-25T00:11:38;97397.63;;;6.74;74.07
63568;BME280;49715;42.386;20.434;2022-11-25T00:14:05;97409.06;;;6.72;73.92
63568;BME280;49715;42.386;20.434;2022-11-25T00:16:32;97411.94;;;6.69;73.94
63568;BME280;49715;42.386;20.434;2022-11-25T00:18:58;97401.72;;;6.66;74.17
63568;BME280;49715;42.386;20.434;2022-11-25T00:21:25;97400.88;;;6.66;73.94
63568;BME280;49715;42.386;20.434;2022-11-25T00:23:53;97411.59;;;6.63;74.01
63568;BME280;49715;42.386;20.434;2022-11-25T00:26:19;97411.88;;;6.60;74.05
63568;BME280;49715;42.386;20.434;2022-11-25T00:28:46;97410.22;;;6.59;73.96
63568;BME280;49715;42.386;20.434;2022-11-25T00:31:19;97408.81;;;6.55;73.63
63568;BME280;49715;42.386;20.434;2022-11-25T00:33:46;97412.63;;;6.51;73.69
63568;BME280;49715;42.386;20.434;2022-11-25T00:38:38;97397.28;;;6.46;73.65
63568;BME280;49715;42.386;20.434;2022-11-25T00:41:05;97396.09;;;6.39;74.14
63568;BME280;49715;42.386;20.434;2022-11-25T00:43:49;97430.19;;;6.28;74.14
63568;BME280;49715;42.386;20.434;2022-11-25T00:46:34;97435.47;;;6.16;74.47
63568;BME280;49715;42.386;20.434;2022-11-25T00:49:00;97406.31;;;6.10;74.35
63568;BME280;49715;42.386;20.434;2022-11-25T00:51:27;97398.88;;;6.05;74.68
63568;BME280;49715;42.386;20.434;2022-11-25T00:53:53;97407.78;;;6.03;74.62
63568;BME280;49715;42.386;20.434;2022-11-25T00:56:19;97410.63;;;6.00;74.51
63568;BME280;49715;42.386;20.434;2022-11-25T00:58:47;97414.47;;;5.96;74.44
63568;BME280;49715;42.386;20.434;2022-11-25T01:01:14;97416.22;;;5.95;74.50
63568;BME280;49715;42.386;20.434;2022-11-25T01:03:40;97415.28;;;5.96;74.37
63568;BME280;49715;42.386;20.434;2022-11-25T01:06:07;97409.81;;;5.99;74.21
63568;BME280;49715;42.386;20.434;2022-11-25T01:08:34;97417.56;;;6.01;74.26
63568;BME280;49715;42.386;20.434;2022-11-25T01:11:05;97413.84;;;6.03;74.15
63568;BME280;49715;42.386;20.434;2022-11-25T01:13:31;97414.44;;;6.07;74.19
63568;BME280;49715;42.386;20.434;2022-11-25T01:16:04;97411.56;;;6.10;73.94
63568;BME280;49715;42.386;20.434;2022-11-25T01:18:31;97414.06;;;6.11;73.80
63568;BME280;49715;42.386;20.434;2022-11-25T01:21:32;97397.31;;;6.03;73.72
63568;BME280;49715;42.386;20.434;2022-11-25T01:23:50;97398.00;;;6.05;73.80
63568;BME280;49715;42.386;20.434;2022-11-25T01:26:17;97405.16;;;6.03;73.95
63568;BME280;49715;42.386;20.434;2022-11-25T01:28:45;97403.50;;;6.02;74.00
63568;BME280;49715;42.386;20.434;2022-11-25T01:31:12;97405.28;;;6.01;73.89
63568;BME280;49715;42.386;20.434;2022-11-25T01:33:39;97406.13;;;6.02;73.67
63568;BME280;49715;42.386;20.434;2022-11-25T01:36:06;97402.69;;;6.01;74.14
63568;BME280;49715;42.386;20.434;2022-11-25T01:38:33;97416.59;;;6.02;73.93
63568;BME280;49715;42.386;20.434;2022-11-25T01:40:59;97419.56;;;5.97;74.20
63568;BME280;49715;42.386;20.434;2022-11-25T01:43:26;97420.63;;;5.94;74.42
63568;BME280;49715;42.386;20.434;2022-11-25T01:45:56;97428.47;;;5.94;74.48
63568;BME280;49715;42.386;20.434;2022-11-25T01:48:28;97426.59;;;5.97;74.57
63568;BME280;49715;42.386;20.434;2022-11-25T01:50:56;97424.66;;;5.99;74.70
63568;BME280;49715;42.386;20.434;2022-11-25T01:53:25;97415.84;;;6.00;74.51
63568;BME280;49715;42.386;20.434;2022-11-25T01:55:52;97414.06;;;6.00;74.72
63568;BME280;49715;42.386;20.434;2022-11-25T01:58:20;97420.16;;;6.01;74.72
63568;BME280;49715;42.386;20.434;2022-11-25T02:00:47;97413.25;;;6.00;74.62
63568;BME280;49715;42.386;20.434;2022-11-25T02:03:18;97422.78;;;6.01;74.83
63568;BME280;49715;42.386;20.434;2022-11-25T02:05:58;97417.56;;;6.01;74.92
63568;BME280;49715;42.386;20.434;2022-11-25T02:08:29;97413.38;;;5.98;74.77
63568;BME280;49715;42.386;20.434;2022-11-25T02:10:55;97415.84;;;6.00;74.90
63568;BME280;49715;42.386;20.434;2022-11-25T02:13:22;97408.75;;;6.02;74.65
63568;BME280;49715;42.386;20.434;2022-11-25T02:15:49;97417.28;;;6.04;74.43
63568;BME280;49715;42.386;20.434;2022-11-25T02:18:15;97421.47;;;6.06;74.42
63568;BME280;49715;42.386;20.434;2022-11-25T02:20:44;97431.91;;;6.06;74.59
63568;BME280;49715;42.386;20.434;2022-11-25T02:23:14;97437.97;;;6.07;74.40
63568;BME280;49715;42.386;20.434;2022-11-25T02:25:45;97435.59;;;6.04;74.13
63568;BME280;49715;42.386;20.434;2022-11-25T02:28:15;97443.72;;;6.01;74.24
63568;BME280;49715;42.386;20.434;2022-11-25T02:30:42;97441.31;;;5.98;74.20
63568;BME280;49715;42.386;20.434;2022-11-25T02:33:08;97438.72;;;5.98;74.14
63568;BME280;49715;42.386;20.434;2022-11-25T02:38:23;97452.50;;;6.00;74.03
63568;BME280;49715;42.386;20.434;2022-11-25T02:43:32;97445.88;;;5.96;73.91
63568;BME280;49715;42.386;20.434;2022-11-25T02:46:03;97453.81;;;6.05;73.96
63568;BME280;49715;42.386;20.434;2022-11-25T02:48:30;97462.22;;;6.09;73.79
63568;BME280;49715;42.386;20.434;2022-11-25T02:50:57;97464.63;;;6.12;73.76
63568;BME280;49715;42.386;20.434;2022-11-25T02:53:23;97459.03;;;6.05;73.90
63568;BME280;49715;42.386;20.434;2022-11-25T02:55:50;97464.75;;;6.10;73.68
63568;BME280;49715;42.386;20.434;2022-11-25T02:58:16;97462.13;;;6.10;73.73
63568;BME280;49715;42.386;20.434;2022-11-25T03:00:43;97465.56;;;6.11;73.71
63568;BME280;49715;42.386;20.434;2022-11-25T03:03:10;97462.00;;;6.12;73.64
63568;BME280;49715;42.386;20.434;2022-11-25T03:05:36;97478.75;;;6.09;73.86
63568;BME280;49715;42.386;20.434;2022-11-25T03:08:03;97496.38;;;6.07;73.74
63568;BME280;49715;42.386;20.434;2022-11-25T03:10:29;97485.22;;;6.05;73.97
63568;BME280;49715;42.386;20.434;2022-11-25T03:12:57;97478.28;;;6.04;74.00
63568;BME280;49715;42.386;20.434;2022-11-25T03:15:24;97477.22;;;6.07;74.13
63568;BME280;49715;42.386;20.434;2022-11-25T03:17:50;97474.47;;;6.08;74.26
63568;BME280;49715;42.386;20.434;2022-11-25T03:20:17;97472.47;;;6.12;74.22
63568;BME280;49715;42.386;20.434;2022-11-25T03:22:46;97474.13;;;6.13;74.18
63568;BME280;49715;42.386;20.434;2022-11-25T03:25:12;97470.53;;;6.14;74.29
63568;BME280;49715;42.386;20.434;2022-11-25T03:27:39;97468.75;;;6.14;73.99
63568;BME280;49715;42.386;20.434;2022-11-25T03:30:06;97478.41;;;6.14;73.80
63568;BME280;49715;42.386;20.434;2022-11-25T03:32:32;97489.00;;;6.12;73.60
63568;BME280;49715;42.386;20.434;2022-11-25T03:34:59;97491.75;;;6.11;73.80
63568;BME280;49715;42.386;20.434;2022-11-25T03:37:25;97484.25;;;6.06;73.49
63568;BME280;49715;42.386;20.434;2022-11-25T03:39:51;97480.91;;;6.04;73.61
63568;BME280;49715;42.386;20.434;2022-11-25T03:42:17;97481.75;;;6.05;73.62
63568;BME280;49715;42.386;20.434;2022-11-25T03:44:44;97471.28;;;6.05;73.63
63568;BME280;49715;42.386;20.434;2022-11-25T03:47:10;97469.50;;;6.05;73.62
63568;BME280;49715;42.386;20.434;2022-11-25T03:49:36;97474.75;;;6.05;73.38
63568;BME280;49715;42.386;20.434;2022-11-25T03:52:03;97473.66;;;6.08;73.62
63568;BME280;49715;42.386;20.434;2022-11-25T03:54:30;97483.66;;;6.03;73.52
63568;BME280;49715;42.386;20.434;2022-11-25T03:57:17;97480.69;;;5.96;73.63
63568;BME280;49715;42.386;20.434;2022-11-25T03:59:43;97480.69;;;5.96;73.89
63568;BME280;49715;42.386;20.434;2022-11-25T04:02:10;97492.69;;;5.99;73.98
63568;BME280;49715;42.386;20.434;2022-11-25T04:04:36;97497.94;;;5.99;73.66
63568;BME280;49715;42.386;20.434;2022-11-25T04:07:02;97500.53;;;5.99;73.71
63568;BME280;49715;42.386;20.434;2022-11-25T04:09:28;97496.97;;;6.00;74.06
63568;BME280;49715;42.386;20.434;2022-11-25T04:11:57;97503.88;;;6.01;74.06
63568;BME280;49715;42.386;20.434;2022-11-25T04:14:51;97519.59;;;6.01;73.83
63568;BME280;49715;42.386;20.434;2022-11-25T04:17:17;97530.28;;;5.98;73.88
63568;BME280;49715;42.386;20.434;2022-11-25T04:19:44;97518.09;;;5.85;73.89
63568;BME280;49715;42.386;20.434;2022-11-25T04:22:11;97531.59;;;5.92;73.84
63568;BME280;49715;42.386;20.434;2022-11-25T04:24:40;97527.28;;;5.91;73.75
63568;BME280;49715;42.386;20.434;2022-11-25T04:27:07;97518.72;;;5.89;73.64
63568;BME280;49715;42.386;20.434;2022-11-25T04:29:34;97526.56;;;5.89;73.52
63568;BME280;49715;42.386;20.434;2022-11-25T04:32:03;97538.81;;;5.88;73.36
63568;BME280;49715;42.386;20.434;2022-11-25T04:34:29;97542.50;;;5.86;73.18
63568;BME280;49715;42.386;20.434;2022-11-25T04:36:57;97536.41;;;5.85;73.20
63568;BME280;49715;42.386;20.434;2022-11-25T04:39:23;97533.09;;;5.83;72.91
63568;BME280;49715;42.386;20.434;2022-11-25T04:41:52;97540.25;;;5.81;73.02
63568;BME280;49715;42.386;20.434;2022-11-25T04:44:38;97549.75;;;5.82;73.20
63568;BME280;49715;42.386;20.434;2022-11-25T04:47:05;97558.56;;;5.81;73.10
63568;BME280;49715;42.386;20.434;2022-11-25T04:49:31;97555.19;;;5.79;73.19
63568;BME280;49715;42.386;20.434;2022-11-25T04:51:57;97559.81;;;5.76;73.26
63568;BME280;49715;42.386;20.434;2022-11-25T04:54:24;97567.81;;;5.74;73.32
63568;BME280;49715;42.386;20.434;2022-11-25T04:56:50;97571.38;;;5.73;73.40
63568;BME280;49715;42.386;20.434;2022-11-25T04:59:18;97587.06;;;5.73;73.53
63568;BME280;49715;42.386;20.434;2022-11-25T05:02:02;97585.41;;;5.72;73.66
63568;BME280;49715;42.386;20.434;2022-11-25T05:04:34;97574.00;;;5.73;73.50
63568;BME280;49715;42.386;20.434;2022-11-25T05:07:01;97572.31;;;5.72;73.79
63568;BME280;49715;42.386;20.434;2022-11-25T05:09:27;97578.59;;;5.69;74.02
63568;BME280;49715;42.386;20.434;2022-11-25T05:12:14;97581.56;;;5.65;73.78
63568;BME280;49715;42.386;20.434;2022-11-25T05:14:40;97581.81;;;5.62;74.08
63568;BME280;49715;42.386;20.434;2022-11-25T05:17:06;97584.53;;;5.60;74.02
63568;BME280;49715;42.386;20.434;2022-11-25T05:19:33;97597.50;;;5.62;74.15
63568;BME280;49715;42.386;20.434;2022-11-25T05:22:02;97594.91;;;5.62;74.05
63568;BME280;49715;42.386;20.434;2022-11-25T05:24:28;97587.16;;;5.60;74.03
63568;BME280;49715;42.386;20.434;2022-11-25T05:26:55;97576.69;;;5.60;74.22
63568;BME280;49715;42.386;20.434;2022-11-25T05:29:21;97575.03;;;5.59;74.17
63568;BME280;49715;42.386;20.434;2022-11-25T05:31:47;97590.84;;;5.58;73.83
63568;BME280;49715;42.386;20.434;2022-11-25T05:34:14;97603.91;;;5.58;74.02
63568;BME280;49715;42.386;20.434;2022-11-25T05:36:40;97602.13;;;5.58;73.98
63568;BME280;49715;42.386;20.434;2022-11-25T05:39:07;97609.84;;;5.60;74.09
63568;BME280;49715;42.386;20.434;2022-11-25T05:41:53;97621.88;;;5.62;74.19
63568;BME280;49715;42.386;20.434;2022-11-25T05:44:19;97633.78;;;5.66;74.17
63568;BME280;49715;42.386;20.434;2022-11-25T05:46:46;97637.09;;;5.68;74.04
63568;BME280;49715;42.386;20.434;2022-11-25T05:49:14;97643.16;;;5.69;73.74
63568;BME280;49715;42.386;20.434;2022-11-25T05:51:40;97636.97;;;5.70;73.78
63568;BME280;49715;42.386;20.434;2022-11-25T05:54:06;97649.84;;;5.73;74.02
63568;BME280;49715;42.386;20.434;2022-11-25T05:56:35;97639.38;;;5.73;74.13
63568;BME280;49715;42.386;20.434;2022-11-25T05:59:08;97633.31;;;5.73;73.98
63568;BME280;49715;42.386;20.434;2022-11-25T06:01:53;97637.72;;;5.72;74.25
63568;BME280;49715;42.386;20.434;2022-11-25T06:04:19;97647.44;;;5.70;74.17
63568;BME280;49715;42.386;20.434;2022-11-25T06:06:45;97659.94;;;5.66;74.25
63568;BME280;49715;42.386;20.434;2022-11-25T06:09:11;97667.63;;;5.57;74.26
63568;BME280;49715;42.386;20.434;2022-11-25T06:11:38;97670.91;;;5.48;74.32
63568;BME280;49715;42.386;20.434;2022-11-25T06:14:04;97661.63;;;5.43;74.34
63568;BME280;49715;42.386;20.434;2022-11-25T06:16:30;97655.56;;;5.43;74.56
63568;BME280;49715;42.386;20.434;2022-11-25T06:19:08;97662.13;;;5.49;74.35
63568;BME280;49715;42.386;20.434;2022-11-25T06:21:36;97665.34;;;5.52;74.25
63568;BME280;49715;42.386;20.434;2022-11-25T06:24:02;97677.47;;;5.53;74.43
63568;BME280;49715;42.386;20.434;2022-11-25T06:26:29;97678.16;;;5.55;74.51
63568;BME280;49715;42.386;20.434;2022-11-25T06:28:56;97684.00;;;5.59;74.47
63568;BME280;49715;42.386;20.434;2022-11-25T06:31:23;97687.00;;;5.65;74.51
63568;BME280;49715;42.386;20.434;2022-11-25T06:34:12;97683.84;;;5.73;74.50
63568;BME280;49715;42.386;20.434;2022-11-25T06:36:40;97678.88;;;5.81;74.51
63568;BME280;49715;42.386;20.434;2022-11-25T06:39:06;97676.63;;;5.88;74.41
63568;BME280;49715;42.386;20.434;2022-11-25T06:41:32;97678.78;;;5.94;74.32
63568;BME280;49715;42.386;20.434;2022-11-25T06:44:00;97682.63;;;6.01;74.33
63568;BME280;49715;42.386;20.434;2022-11-25T06:46:27;97686.44;;;6.08;74.23
63568;BME280;49715;42.386;20.434;2022-11-25T06:48:53;97686.91;;;6.13;74.14
63568;BME280;49715;42.386;20.434;2022-11-25T06:51:25;97699.66;;;6.18;74.22
63568;BME280;49715;42.386;20.434;2022-11-25T06:53:51;97694.06;;;6.23;74.23
63568;BME280;49715;42.386;20.434;2022-11-25T06:56:21;97697.31;;;6.26;73.78
63568;BME280;49715;42.386;20.434;2022-11-25T06:58:48;97698.47;;;6.22;73.79
63568;BME280;49715;42.386;20.434;2022-11-25T07:03:42;97699.53;;;6.19;73.80
63568;BME280;49715;42.386;20.434;2022-11-25T07:06:13;97699.53;;;6.19;73.74
63568;BME280;49715;42.386;20.434;2022-11-25T07:08:44;97707.28;;;6.21;73.84
63568;BME280;49715;42.386;20.434;2022-11-25T07:11:19;97699.44;;;6.21;73.88
63568;BME280;49715;42.386;20.434;2022-11-25T07:14:08;97711.69;;;6.21;73.74
63568;BME280;49715;42.386;20.434;2022-11-25T07:16:40;97713.47;;;6.20;73.62
63568;BME280;49715;42.386;20.434;2022-11-25T07:22:03;97717.03;;;6.19;73.55
63568;BME280;49715;42.386;20.434;2022-11-25T07:24:32;97718.22;;;6.15;73.43
63568;BME280;49715;42.386;20.434;2022-11-25T07:27:01;97712.38;;;6.11;73.72
63568;BME280;49715;42.386;20.434;2022-11-25T07:29:31;97722.94;;;6.10;73.75
63568;BME280;49715;42.386;20.434;2022-11-25T07:32:04;97726.44;;;6.10;74.09
63568;BME280;49715;42.386;20.434;2022-11-25T07:34:59;97730.38;;;6.16;74.00
63568;BME280;49715;42.386;20.434;2022-11-25T07:37:27;97736.31;;;6.18;74.14
63568;BME280;49715;42.386;20.434;2022-11-25T07:39:53;97752.63;;;6.22;73.95
63568;BME280;49715;42.386;20.434;2022-11-25T07:42:20;97750.00;;;6.22;74.04
63568;BME280;49715;42.386;20.434;2022-11-25T07:44:47;97757.50;;;6.26;73.82
63568;BME280;49715;42.386;20.434;2022-11-25T07:47:33;97758.00;;;6.31;73.77
63568;BME280;49715;42.386;20.434;2022-11-25T07:50:00;97761.94;;;6.37;73.60
63568;BME280;49715;42.386;20.434;2022-11-25T07:52:27;97770.75;;;6.36;73.20
63568;BME280;49715;42.386;20.434;2022-11-25T07:54:53;97783.00;;;6.35;73.43
63568;BME280;49715;42.386;20.434;2022-11-25T07:57:19;97786.53;;;6.34;73.34
63568;BME280;49715;42.386;20.434;2022-11-25T07:59:46;97785.84;;;6.32;73.29
63568;BME280;49715;42.386;20.434;2022-11-25T08:02:15;97786.78;;;6.31;73.75
63568;BME280;49715;42.386;20.434;2022-11-25T08:04:41;97778.31;;;6.28;73.79
63568;BME280;49715;42.386;20.434;2022-11-25T08:07:09;97797.63;;;6.38;73.74
63568;BME280;49715;42.386;20.434;2022-11-25T08:09:35;97794.66;;;6.42;73.92
63568;BME280;49715;42.386;20.434;2022-11-25T08:12:02;97809.81;;;6.50;73.86
63568;BME280;49715;42.386;20.434;2022-11-25T08:14:28;97804.72;;;6.60;73.79
63568;BME280;49715;42.386;20.434;2022-11-25T08:16:54;97823.75;;;6.73;73.95
63568;BME280;49715;42.386;20.434;2022-11-25T08:19:21;97810.34;;;6.89;74.02
63568;BME280;49715;42.386;20.434;2022-11-25T08:21:47;97807.22;;;7.06;74.01
63568;BME280;49715;42.386;20.434;2022-11-25T08:24:18;97805.81;;;7.25;73.44
63568;BME280;49715;42.386;20.434;2022-11-25T08:26:45;97816.88;;;7.39;73.12
63568;BME280;49715;42.386;20.434;2022-11-25T08:29:13;97818.53;;;7.52;72.99
63568;BME280;49715;42.386;20.434;2022-11-25T08:31:40;97827.56;;;7.59;72.68
63568;BME280;49715;42.386;20.434;2022-11-25T08:34:08;97842.81;;;7.65;72.56
63568;BME280;49715;42.386;20.434;2022-11-25T08:36:34;97840.44;;;7.73;72.62
63568;BME280;49715;42.386;20.434;2022-11-25T08:39:03;97842.56;;;7.79;72.19
63568;BME280;49715;42.386;20.434;2022-11-25T08:41:31;97833.63;;;7.82;71.91
63568;BME280;49715;42.386;20.434;2022-11-25T08:44:00;97837.75;;;7.84;71.09
63568;BME280;49715;42.386;20.434;2022-11-25T08:46:28;97838.22;;;7.89;71.26
63568;BME280;49715;42.386;20.434;2022-11-25T08:48:54;97823.06;;;7.93;71.10
63568;BME280;49715;42.386;20.434;2022-11-25T08:51:23;97821.03;;;7.96;71.44
63568;BME280;49715;42.386;20.434;2022-11-25T08:53:52;97822.47;;;8.00;71.18
63568;BME280;49715;42.386;20.434;2022-11-25T08:56:29;97816.56;;;8.08;71.09
63568;BME280;49715;42.386;20.434;2022-11-25T08:58:56;97812.59;;;8.14;70.88
63568;BME280;49715;42.386;20.434;2022-11-25T09:01:23;97815.00;;;8.17;70.10
63568;BME280;49715;42.386;20.434;2022-11-25T09:03:50;97816.50;;;8.19;69.90
63568;BME280;49715;42.386;20.434;2022-11-25T09:06:17;97819.50;;;8.26;70.34
63568;BME280;49715;42.386;20.434;2022-11-25T09:08:49;97809.44;;;8.31;70.52
63568;BME280;49715;42.386;20.434;2022-11-25T09:11:20;97810.84;;;8.35;70.09
63568;BME280;49715;42.386;20.434;2022-11-25T09:13:50;97808.44;;;8.43;70.02
63568;BME280;49715;42.386;20.434;2022-11-25T09:16:16;97806.00;;;8.51;69.83
63568;BME280;49715;42.386;20.434;2022-11-25T09:18:42;97799.25;;;8.59;69.60
63568;BME280;49715;42.386;20.434;2022-11-25T09:21:11;97797.94;;;8.64;68.78
63568;BME280;49715;42.386;20.434;2022-11-25T09:23:39;97800.63;;;8.74;68.52
63568;BME280;49715;42.386;20.434;2022-11-25T09:26:06;97799.00;;;8.83;68.65
63568;BME280;49715;42.386;20.434;2022-11-25T09:28:34;97786.63;;;8.94;68.27
63568;BME280;49715;42.386;20.434;2022-11-25T09:31:08;97785.00;;;9.03;66.98
63568;BME280;49715;42.386;20.434;2022-11-25T09:33:34;97788.59;;;9.12;67.68
63568;BME280;49715;42.386;20.434;2022-11-25T09:36:05;97781.47;;;9.23;67.17
63568;BME280;49715;42.386;20.434;2022-11-25T09:38:32;97785.66;;;9.36;66.23
63568;BME280;49715;42.386;20.434;2022-11-25T09:44:16;97773.78;;;9.61;65.63
63568;BME280;49715;42.386;20.434;2022-11-25T09:54:41;97769.28;;;10.21;65.13
63568;BME280;49715;42.386;20.434;2022-11-25T09:59:41;97761.34;;;10.50;65.32
63568;BME280;49715;42.386;20.434;2022-11-25T10:02:51;97764.22;;;10.66;64.27
63568;BME280;49715;42.386;20.434;2022-11-25T10:05:00;97758.22;;;10.83;62.86
63568;BME280;49715;42.386;20.434;2022-11-25T10:07:34;97743.47;;;10.91;62.70
63568;BME280;49715;42.386;20.434;2022-11-25T10:10:02;97747.41;;;11.14;62.84
63568;BME280;49715;42.386;20.434;2022-11-25T10:12:36;97741.31;;;11.31;63.39
63568;BME280;49715;42.386;20.434;2022-11-25T10:20:54;97728.75;;;11.89;62.01
63568;BME280;49715;42.386;20.434;2022-11-25T10:23:22;97727.09;;;12.05;62.19
63568;BME280;49715;42.386;20.434;2022-11-25T10:26:16;97721.75;;;12.23;61.58
63568;BME280;49715;42.386;20.434;2022-11-25T10:29:15;97715.09;;;12.37;62.48
63568;BME280;49715;42.386;20.434;2022-11-25T10:31:35;97721.81;;;12.49;62.11
63568;BME280;49715;42.386;20.434;2022-11-25T10:34:05;97715.34;;;12.52;60.51
63568;BME280;49715;42.386;20.434;2022-11-25T10:36:37;97717.38;;;12.58;61.75
63568;BME280;49715;42.386;20.434;2022-11-25T10:41:31;97707.88;;;12.73;61.68
63568;BME280;49715;42.386;20.434;2022-11-25T10:43:59;97714.72;;;12.84;61.85
63568;BME280;49715;42.386;20.434;2022-11-25T10:46:29;97709.16;;;12.95;62.13
63568;BME280;49715;42.386;20.434;2022-11-25T10:49:06;97712.03;;;13.10;61.76
63568;BME280;49715;42.386;20.434;2022-11-25T10:51:40;97702.00;;;13.22;61.23
63568;BME280;49715;42.386;20.434;2022-11-25T10:54:13;97705.34;;;13.32;59.64
63568;BME280;49715;42.386;20.434;2022-11-25T10:56:50;97699.75;;;13.43;59.28
63568;BME280;49715;42.386;20.434;2022-11-25T11:01:50;97697.16;;;13.68;58.91
63568;BME280;49715;42.386;20.434;2022-11-25T11:04:16;97700.66;;;13.76;58.34
63568;BME280;49715;42.386;20.434;2022-11-25T11:06:44;97694.50;;;13.84;58.60
63568;BME280;49715;42.386;20.434;2022-11-25T11:12:17;97685.59;;;14.01;55.39
63568;BME280;49715;42.386;20.434;2022-11-25T11:14:44;97687.72;;;14.14;55.55
63568;BME280;49715;42.386;20.434;2022-11-25T11:17:22;97685.72;;;14.24;54.97
63568;BME280;49715;42.386;20.434;2022-11-25T11:20:02;97686.69;;;14.39;58.09
63568;BME280;49715;42.386;20.434;2022-11-25T11:22:29;97678.59;;;14.57;57.41
63568;BME280;49715;42.386;20.434;2022-11-25T11:25:07;97667.44;;;14.70;57.59
63568;BME280;49715;42.386;20.434;2022-11-25T11:27:36;97673.56;;;14.79;55.04
63568;BME280;49715;42.386;20.434;2022-11-25T11:30:07;97671.53;;;14.89;56.08
63568;BME280;49715;42.386;20.434;2022-11-25T11:32:33;97674.13;;;14.97;54.44
63568;BME280;49715;42.386;20.434;2022-11-25T11:37:38;97671.25;;;15.15;53.29
63568;BME280;49715;42.386;20.434;2022-11-25T11:43:02;97669.81;;;15.35;54.22
63568;BME280;49715;42.386;20.434;2022-11-25T11:45:48;97671.38;;;15.53;54.36
63568;BME280;49715;42.386;20.434;2022-11-25T11:51:38;97670.03;;;15.80;51.62
63568;BME280;49715;42.386;20.434;2022-11-25T11:56:55;97660.47;;;15.93;54.22
63568;BME280;49715;42.386;20.434;2022-11-25T12:09:58;97657.16;;;16.29;52.44
63568;BME280;49715;42.386;20.434;2022-11-25T12:12:49;97660.94;;;16.35;55.32
63568;BME280;49715;42.386;20.434;2022-11-25T12:15:34;97653.00;;;16.50;53.93
63568;BME280;49715;42.386;20.434;2022-11-25T12:21:02;97650.34;;;16.79;49.50
63568;BME280;49715;42.386;20.434;2022-11-25T12:26:02;97651.47;;;16.85;49.21
63568;BME280;49715;42.386;20.434;2022-11-25T12:28:39;97647.41;;;16.89;51.91
63568;BME280;49715;42.386;20.434;2022-11-25T12:33:46;97653.00;;;16.94;53.23
63568;BME280;49715;42.386;20.434;2022-11-25T12:36:23;97648.50;;;16.94;51.16
63568;BME280;49715;42.386;20.434;2022-11-25T12:38:54;97650.16;;;16.95;49.55
63568;BME280;49715;42.386;20.434;2022-11-25T12:41:26;97641.81;;;16.98;50.67
63568;BME280;49715;42.386;20.434;2022-11-25T12:44:03;97655.38;;;17.04;50.16
63568;BME280;49715;42.386;20.434;2022-11-25T12:48:57;97639.03;;;17.07;48.04
63568;BME280;49715;42.386;20.434;2022-11-25T12:51:31;97651.22;;;17.16;54.94
63568;BME280;49715;42.386;20.434;2022-11-25T12:54:09;97646.56;;;17.18;50.99
63568;BME280;49715;42.386;20.434;2022-11-25T12:57:07;97635.59;;;17.13;50.08
63568;BME280;49715;42.386;20.434;2022-11-25T13:05:25;97633.13;;;17.11;51.83
63568;BME280;49715;42.386;20.434;2022-11-25T13:13:35;97632.28;;;17.25;53.07
63568;BME280;49715;42.386;20.434;2022-11-25T13:16:05;97640.53;;;17.31;51.61
63568;BME280;49715;42.386;20.434;2022-11-25T13:18:36;97637.25;;;17.29;48.13
63568;BME280;49715;42.386;20.434;2022-11-25T13:21:09;97636.84;;;17.32;52.49
63568;BME280;49715;42.386;20.434;2022-11-25T13:23:40;97642.00;;;17.33;52.96
63568;BME280;49715;42.386;20.434;2022-11-25T13:28:53;97643.84;;;17.33;52.58
63568;BME280;49715;42.386;20.434;2022-11-25T13:31:33;97644.03;;;17.31;53.29
63568;BME280;49715;42.386;20.434;2022-11-25T13:34:15;97635.00;;;17.32;53.92
63568;BME280;49715;42.386;20.434;2022-11-25T13:36:49;97644.03;;;17.31;51.83
63568;BME280;49715;42.386;20.434;2022-11-25T13:39:18;97636.22;;;17.30;52.30
63568;BME280;49715;42.386;20.434;2022-11-25T13:42:00;97644.56;;;17.27;51.42
63568;BME280;49715;42.386;20.434;2022-11-25T13:44:35;97647.63;;;17.23;53.09
63568;BME280;49715;42.386;20.434;2022-11-25T13:50:05;97643.69;;;17.19;52.18
63568;BME280;49715;42.386;20.434;2022-11-25T13:52:48;97649.38;;;17.16;55.21
63568;BME280;49715;42.386;20.434;2022-11-25T13:55:34;97639.84;;;17.07;51.23
63568;BME280;49715;42.386;20.434;2022-11-25T14:00:42;97649.25;;;17.03;55.25
63568;BME280;49715;42.386;20.434;2022-11-25T14:25:54;97658.16;;;16.28;54.78
63568;BME280;49715;42.386;20.434;2022-11-25T14:30:52;97659.38;;;15.88;55.18
63568;BME280;49715;42.386;20.434;2022-11-25T14:33:25;97663.84;;;15.56;54.65
63568;BME280;49715;42.386;20.434;2022-11-25T14:35:59;97671.66;;;15.27;53.39
63568;BME280;49715;42.386;20.434;2022-11-25T14:38:28;97679.75;;;15.02;52.99
63568;BME280;49715;42.386;20.434;2022-11-25T14:40:59;97668.41;;;14.77;54.13
63568;BME280;49715;42.386;20.434;2022-11-25T14:43:29;97673.78;;;14.53;54.10
63568;BME280;49715;42.386;20.434;2022-11-25T14:46:13;97673.63;;;14.30;54.37
63568;BME280;49715;42.386;20.434;2022-11-25T14:48:40;97671.66;;;14.07;54.51
63568;BME280;49715;42.386;20.434;2022-11-25T14:51:08;97673.47;;;13.90;54.70
63568;BME280;49715;42.386;20.434;2022-11-25T14:53:43;97673.47;;;13.74;54.31
63568;BME280;49715;42.386;20.434;2022-11-25T14:56:10;97682.25;;;13.58;54.25
63568;BME280;49715;42.386;20.434;2022-11-25T14:58:40;97678.56;;;13.43;54.39
63568;BME280;49715;42.386;20.434;2022-11-25T15:01:08;97686.31;;;13.28;54.40
63568;BME280;49715;42.386;20.434;2022-11-25T15:03:46;97678.13;;;13.13;54.55
63568;BME280;49715;42.386;20.434;2022-11-25T15:06:16;97678.75;;;12.99;54.74
63568;BME280;49715;42.386;20.434;2022-11-25T15:08:54;97682.81;;;12.85;54.69
63568;BME280;49715;42.386;20.434;2022-11-25T15:11:21;97684.41;;;12.70;55.65